createdAt,value
2018-06-17T00:00:01.091Z,7.93
2018-06-17T00:02:28.562Z,5.43
2018-06-17T00:04:56.375Z,6.67
2018-06-17T00:07:23.840Z,6.60
2018-06-17T00:09:51.423Z,5.27
2018-06-17T00:12:18.873Z,10.30
2018-06-17T00:14:46.395Z,6.13
2018-06-17T00:17:14.295Z,8.70
2018-06-17T00:19:42.387Z,6.00
2018-06-17T00:22:09.942Z,6.40
2018-06-17T00:24:37.523Z,6.50
2018-06-17T00:27:05.991Z,6.57
2018-06-17T00:29:33.733Z,5.60
2018-06-17T00:32:01.380Z,6.67
2018-06-17T00:34:30.146Z,7.17
2018-06-17T00:36:59.767Z,7.03
2018-06-17T00:39:27.292Z,6.63
2018-06-17T00:41:55.423Z,8.53
2018-06-17T00:44:23.363Z,8.13
2018-06-17T00:46:50.934Z,10.97
2018-06-17T00:49:18.332Z,7.40
2018-06-17T00:51:47.278Z,7.80
2018-06-17T00:54:14.752Z,8.30
2018-06-17T00:56:42.519Z,7.87
2018-06-17T00:59:10.039Z,6.97
2018-06-17T01:01:37.605Z,6.47
2018-06-17T01:04:05.434Z,5.40
2018-06-17T01:06:32.981Z,5.90
2018-06-17T01:09:00.520Z,6.00
2018-06-17T01:11:28.171Z,5.23
2018-06-17T01:13:55.716Z,4.47
2018-06-17T01:16:23.245Z,4.33
2018-06-17T01:18:51.267Z,5.00
2018-06-17T01:21:18.874Z,6.33
2018-06-17T01:23:46.364Z,5.00
2018-06-17T01:26:13.932Z,6.27
2018-06-17T01:28:41.485Z,5.53
2018-06-17T01:31:09.157Z,4.37
2018-06-17T01:33:36.818Z,5.33
2018-06-17T01:36:04.469Z,7.20
2018-06-17T01:38:31.955Z,5.30
2018-06-17T01:41:00.094Z,5.00
2018-06-17T01:43:28.208Z,5.10
2018-06-17T01:45:55.792Z,5.80
2018-06-17T01:48:23.316Z,4.70
2018-06-17T01:50:50.821Z,5.20
2018-06-17T01:53:18.198Z,4.93
2018-06-17T01:55:45.697Z,7.07
2018-06-17T01:58:13.221Z,4.90
2018-06-17T02:00:40.700Z,6.70
2018-06-17T02:03:14.059Z,5.37
2018-06-17T02:05:47.286Z,7.00
2018-06-17T02:08:20.537Z,5.80
2018-06-17T02:10:53.676Z,5.30
2018-06-17T02:13:21.209Z,5.40
2018-06-17T02:15:48.759Z,5.60
2018-06-17T02:18:16.301Z,4.93
2018-06-17T02:20:43.835Z,4.77
2018-06-17T02:23:11.436Z,5.20
2018-06-17T02:25:38.972Z,5.47
2018-06-17T02:28:06.553Z,4.77
2018-06-17T02:30:33.976Z,5.30
2018-06-17T02:33:01.545Z,5.37
2018-06-17T02:35:28.962Z,4.43
2018-06-17T02:37:56.411Z,6.63
2018-06-17T02:40:23.834Z,6.30
2018-06-17T02:42:51.295Z,6.63
2018-06-17T02:45:24.545Z,4.83
2018-06-17T02:47:57.739Z,4.10
2018-06-17T02:50:30.956Z,4.10
2018-06-17T02:53:04.107Z,4.20
2018-06-17T02:55:31.664Z,3.37
2018-06-17T02:57:59.125Z,4.60
2018-06-17T03:00:26.632Z,4.90
2018-06-17T03:02:54.144Z,4.33
2018-06-17T03:05:21.666Z,4.40
2018-06-17T03:07:49.105Z,4.07
2018-06-17T03:10:16.558Z,3.93
2018-06-17T03:12:44.095Z,4.03
2018-06-17T03:15:11.642Z,3.57
2018-06-17T03:17:39.115Z,3.40
2018-06-17T03:20:06.612Z,3.87
2018-06-17T03:22:34.107Z,3.67
2018-06-17T03:25:07.338Z,3.70
2018-06-17T03:27:40.621Z,3.73
2018-06-17T03:30:13.869Z,4.73
2018-06-17T03:42:26.450Z,4.13
2018-06-17T03:44:53.922Z,3.93
2018-06-17T03:47:21.773Z,3.63
2018-06-17T03:49:49.265Z,3.90
2018-06-17T03:52:16.793Z,3.80
2018-06-17T03:54:44.304Z,4.20
2018-06-17T03:57:11.759Z,3.80
2018-06-17T03:59:39.163Z,3.83
2018-06-17T04:02:06.665Z,4.77
2018-06-17T04:05:42.621Z,4.27
2018-06-17T04:08:10.092Z,4.90
2018-06-17T04:10:37.635Z,3.33
2018-06-17T04:13:05.140Z,3.60
2018-06-17T04:15:32.704Z,3.70
2018-06-17T04:18:00.473Z,4.40
2018-06-17T04:20:27.854Z,3.73
2018-06-17T04:22:55.343Z,3.30
2018-06-17T04:25:22.919Z,3.17
2018-06-17T04:27:50.423Z,3.17
2018-06-17T04:30:18.005Z,2.83
2018-06-17T04:42:30.558Z,3.60
2018-06-17T04:44:58.211Z,3.10
2018-06-17T04:47:25.726Z,3.30
2018-06-17T04:49:53.206Z,3.70
2018-06-17T04:52:20.765Z,3.77
2018-06-17T04:54:48.522Z,3.20
2018-06-17T04:57:16.168Z,2.60
2018-06-17T04:59:43.699Z,2.70
2018-06-17T05:02:11.220Z,3.10
2018-06-17T05:04:38.703Z,3.57
2018-06-17T05:07:06.220Z,3.70
2018-06-17T05:09:33.741Z,3.37
2018-06-17T05:12:01.384Z,3.90
2018-06-17T05:14:28.820Z,3.90
2018-06-17T05:16:56.373Z,4.07
2018-06-17T05:19:23.942Z,4.37
2018-06-17T05:21:51.444Z,5.07
2018-06-17T05:24:18.876Z,3.77
2018-06-17T05:26:46.474Z,4.07
2018-06-17T05:29:14.009Z,2.87
2018-06-17T05:31:42.240Z,3.00
2018-06-17T05:34:09.775Z,3.30
2018-06-17T05:36:37.272Z,3.60
2018-06-17T05:39:07.876Z,3.50
2018-06-17T05:41:35.394Z,6.30
2018-06-17T05:44:04.123Z,3.30
2018-06-17T05:46:32.165Z,6.10
2018-06-17T05:48:59.609Z,4.30
2018-06-17T05:51:27.172Z,4.73
2018-06-17T05:53:54.698Z,3.40
2018-06-17T05:56:22.252Z,3.47
2018-06-17T05:58:49.765Z,2.77
2018-06-17T06:01:17.309Z,3.20
2018-06-17T06:03:44.781Z,3.33
2018-06-17T06:06:12.383Z,3.03
2018-06-17T06:08:39.951Z,2.93
2018-06-17T06:11:07.491Z,2.90
2018-06-17T06:13:36.023Z,3.73
2018-06-17T06:16:03.590Z,2.57
2018-06-17T06:18:31.083Z,3.27
2018-06-17T06:20:58.661Z,2.27
2018-06-17T06:23:27.519Z,2.97
2018-06-17T06:25:55.637Z,3.47
2018-06-17T06:28:23.153Z,2.70
2018-06-17T06:30:51.671Z,4.13
2018-06-17T06:33:19.281Z,3.47
2018-06-17T06:35:46.829Z,3.00
2018-06-17T06:38:14.329Z,2.57
2018-06-17T06:40:41.971Z,2.40
2018-06-17T06:43:09.580Z,2.10
2018-06-17T06:45:37.172Z,2.40
2018-06-17T06:48:04.972Z,2.70
2018-06-17T06:50:32.530Z,2.40
2018-06-17T06:53:00.590Z,2.83
2018-06-17T06:55:28.882Z,2.83
2018-06-17T06:57:57.099Z,2.40
2018-06-17T07:00:24.671Z,3.43
2018-06-17T07:02:57.900Z,3.63
2018-06-17T07:05:36.908Z,5.80
2018-06-17T07:08:15.825Z,3.73
2018-06-17T07:10:43.370Z,4.13
2018-06-17T07:13:10.879Z,3.07
2018-06-17T07:15:49.774Z,3.70
2018-06-17T07:18:28.420Z,2.53
2018-06-17T07:20:56.025Z,2.80
2018-06-17T07:23:23.523Z,2.37
2018-06-17T07:26:45.421Z,3.27
2018-06-17T07:29:25.776Z,2.53
2018-06-17T07:31:53.358Z,3.00
2018-06-17T07:34:20.805Z,3.37
2018-06-17T07:36:48.809Z,2.30
2018-06-17T07:39:20.747Z,2.43
2018-06-17T07:41:48.135Z,2.23
2018-06-17T07:44:16.427Z,2.57
2018-06-17T07:46:44.234Z,2.40
2018-06-17T07:49:27.304Z,3.10
2018-06-17T07:52:07.716Z,2.73
2018-06-17T07:54:36.801Z,2.67
2018-06-17T07:57:05.110Z,3.33
2018-06-17T07:59:33.135Z,3.07
2018-06-17T08:02:01.446Z,2.70
2018-06-17T08:04:28.939Z,2.30
2018-06-17T08:06:56.471Z,2.63
2018-06-17T08:09:24.116Z,2.80
2018-06-17T08:11:51.643Z,2.90
2018-06-17T08:14:19.271Z,3.03
2018-06-17T08:16:46.760Z,3.10
2018-06-17T08:19:14.266Z,2.97
2018-06-17T08:21:41.771Z,3.80
2018-06-17T08:24:09.406Z,3.03
2018-06-17T08:26:36.950Z,2.90
2018-06-17T08:29:04.831Z,4.10
2018-06-17T08:31:34.397Z,3.20
2018-06-17T08:34:02.009Z,4.20
2018-06-17T08:36:29.523Z,3.90
2018-06-17T08:38:57.052Z,4.30
2018-06-17T08:41:24.604Z,4.00
2018-06-17T08:43:52.175Z,4.20
2018-06-17T08:46:19.838Z,3.00
2018-06-17T08:48:47.318Z,3.43
2018-06-17T08:51:14.869Z,3.33
2018-06-17T08:53:42.597Z,3.80
2018-06-17T08:56:10.252Z,3.30
2018-06-17T08:58:38.886Z,4.23
2018-06-17T09:01:06.398Z,4.40
2018-06-17T09:03:35.949Z,4.37
2018-06-17T09:06:03.731Z,4.70
2018-06-17T09:08:31.164Z,3.23
2018-06-17T09:10:59.658Z,3.80
2018-06-17T09:13:27.963Z,3.30
2018-06-17T09:15:56.518Z,3.70
2018-06-17T09:18:24.727Z,3.50
2018-06-17T09:20:52.584Z,3.00
2018-06-17T09:23:20.783Z,3.10
2018-06-17T09:25:49.066Z,5.73
2018-06-17T09:28:16.523Z,3.70
2018-06-17T09:30:44.159Z,4.93
2018-06-17T09:33:11.791Z,3.10
2018-06-17T09:35:41.207Z,4.53
2018-06-17T09:38:08.928Z,3.43
2018-06-17T09:40:36.472Z,3.50
2018-06-17T09:43:04.110Z,3.03
2018-06-17T09:45:31.923Z,2.50
2018-06-17T09:47:59.514Z,2.60
2018-06-17T09:50:27.437Z,2.60
2018-06-17T09:52:55.019Z,2.43
2018-06-17T09:55:23.172Z,3.17
2018-06-17T09:57:50.758Z,3.67
2018-06-17T10:00:22.056Z,2.90
2018-06-17T10:02:52.182Z,2.93
2018-06-17T10:05:19.820Z,3.40
2018-06-17T10:07:47.648Z,4.77
2018-06-17T10:10:41.766Z,2.57
2018-06-17T10:13:09.349Z,2.50
2018-06-17T10:15:36.994Z,2.90
2018-06-17T10:18:04.741Z,4.43
2018-06-17T10:20:32.300Z,6.10
2018-06-17T10:22:59.780Z,9.80
2018-06-17T10:25:27.310Z,6.30
2018-06-17T10:27:54.990Z,4.70
2018-06-17T10:30:23.829Z,3.80
2018-06-17T10:32:51.574Z,3.90
2018-06-17T10:35:19.445Z,3.67
2018-06-17T10:37:46.990Z,2.87
2018-06-17T10:40:14.502Z,2.77
2018-06-17T10:42:43.080Z,2.73
2018-06-17T10:45:12.597Z,3.20
2018-06-17T10:47:40.157Z,3.30
2018-06-17T10:50:08.682Z,3.50
2018-06-17T10:52:36.212Z,4.13
2018-06-17T10:55:03.754Z,2.77
2018-06-17T10:57:31.311Z,3.93
2018-06-17T10:59:58.749Z,2.07
2018-06-17T11:02:26.295Z,3.67
2018-06-17T11:04:53.842Z,2.60
2018-06-17T11:07:21.410Z,2.77
2018-06-17T11:09:48.963Z,3.97
2018-06-17T11:12:16.603Z,3.10
2018-06-17T11:14:44.054Z,2.37
2018-06-17T11:17:11.622Z,3.07
2018-06-17T11:19:39.214Z,2.90
2018-06-17T11:22:06.678Z,3.67
2018-06-17T11:24:34.548Z,5.67
2018-06-17T11:27:02.141Z,4.57
2018-06-17T11:29:29.743Z,7.00
2018-06-17T11:31:57.410Z,7.23
2018-06-17T11:34:24.977Z,5.90
2018-06-17T11:36:52.589Z,10.50
2018-06-17T11:39:20.171Z,4.73
2018-06-17T11:41:48.398Z,5.20
2018-06-17T11:44:17.196Z,3.90
2018-06-17T11:46:44.891Z,2.87
2018-06-17T11:49:13.581Z,6.00
2018-06-17T11:51:41.966Z,2.50
2018-06-17T11:54:10.903Z,4.80
2018-06-17T11:56:38.553Z,3.00
2018-06-17T11:59:06.744Z,5.13
2018-06-17T12:01:34.271Z,4.73
2018-06-17T12:04:01.819Z,2.13
2018-06-17T12:06:29.397Z,3.90
2018-06-17T12:08:57.550Z,5.13
2018-06-17T12:11:25.901Z,4.07
2018-06-17T12:13:53.336Z,4.80
2018-06-17T12:16:21.004Z,3.17
2018-06-17T12:18:48.489Z,3.93
2018-06-17T12:21:16.041Z,3.00
2018-06-17T12:23:43.631Z,3.00
2018-06-17T12:26:11.243Z,2.30
2018-06-17T12:28:39.343Z,2.30
2018-06-17T12:31:07.531Z,3.30
2018-06-17T12:33:35.140Z,2.40
2018-06-17T12:36:02.708Z,2.40
2018-06-17T12:38:30.214Z,2.57
2018-06-17T12:40:57.776Z,2.77
2018-06-17T12:43:25.376Z,1.90
2018-06-17T12:45:54.606Z,3.53
2018-06-17T12:48:22.094Z,3.93
2018-06-17T12:50:49.628Z,4.17
2018-06-17T12:53:17.098Z,2.77
2018-06-17T12:55:44.621Z,6.50
2018-06-17T12:58:13.167Z,3.10
2018-06-17T13:00:41.417Z,3.80
2018-06-17T13:03:08.920Z,3.50
2018-06-17T13:05:36.444Z,3.30
2018-06-17T13:21:04.071Z,2.90
2018-06-17T13:23:31.608Z,2.77
2018-06-17T13:25:59.063Z,3.57
2018-06-17T13:28:26.642Z,3.47
2018-06-17T13:30:54.494Z,3.10
2018-06-17T13:33:22.842Z,3.43
2018-06-17T13:35:50.742Z,6.47
2018-06-17T13:38:18.203Z,4.73
2018-06-17T13:40:46.388Z,2.77
2018-06-17T13:43:13.944Z,3.47
2018-06-17T13:45:41.516Z,5.73
2018-06-17T13:48:09.066Z,2.97
2018-06-17T13:50:37.500Z,3.77
2018-06-17T13:53:05.080Z,2.10
2018-06-17T13:55:32.740Z,2.87
2018-06-17T13:58:00.274Z,3.53
2018-06-17T14:00:28.036Z,3.07
2018-06-17T14:02:56.958Z,3.90
2018-06-17T14:05:24.410Z,6.23
2018-06-17T14:07:51.977Z,4.27
2018-06-17T14:10:19.712Z,4.17
2018-06-17T14:12:47.550Z,6.17
2018-06-17T14:15:16.160Z,6.30
2018-06-17T14:17:44.640Z,5.70
2018-06-17T14:20:12.384Z,3.70
2018-06-17T14:22:40.433Z,4.80
2018-06-17T14:25:08.636Z,3.80
2018-06-17T14:27:36.279Z,5.73
2018-06-17T14:30:04.320Z,5.87
2018-06-17T14:32:32.336Z,4.10
2018-06-17T14:34:59.915Z,3.80
2018-06-17T14:37:27.492Z,5.03
2018-06-17T14:39:55.038Z,3.63
2018-06-17T14:42:28.561Z,3.57
2018-06-17T14:45:02.256Z,3.40
2018-06-17T14:47:35.646Z,4.30
2018-06-17T14:50:09.176Z,4.27
2018-06-17T14:52:42.765Z,3.77
2018-06-17T14:55:10.813Z,3.80
2018-06-17T14:57:38.301Z,3.10
2018-06-17T15:00:06.002Z,3.83
2018-06-17T15:02:33.537Z,4.20
2018-06-17T15:05:01.126Z,4.17
2018-06-17T15:07:28.821Z,4.60
2018-06-17T15:09:56.631Z,4.07
2018-06-17T15:12:24.168Z,3.90
2018-06-17T15:14:51.877Z,4.40
2018-06-17T15:17:20.048Z,3.27
2018-06-17T15:19:47.649Z,4.30
2018-06-17T15:22:15.254Z,4.17
2018-06-17T15:24:43.656Z,3.20
2018-06-17T15:27:11.309Z,3.60
2018-06-17T15:29:38.863Z,3.30
2018-06-17T15:32:12.535Z,4.97
2018-06-17T15:34:45.653Z,3.87
2018-06-17T15:37:18.765Z,5.13
2018-06-17T15:39:49.254Z,4.87
2018-06-17T15:42:17.096Z,3.87
2018-06-17T15:44:44.796Z,4.47
2018-06-17T15:47:12.794Z,6.03
2018-06-17T15:49:40.433Z,3.73
2018-06-17T15:52:09.168Z,3.20
2018-06-17T15:54:36.790Z,5.90
2018-06-17T15:57:04.721Z,4.83
2018-06-17T15:59:32.424Z,3.20
2018-06-17T16:02:00.168Z,4.77
2018-06-17T16:04:27.652Z,4.63
2018-06-17T16:06:55.648Z,4.67
2018-06-17T16:09:23.174Z,3.90
2018-06-17T16:11:56.545Z,5.43
2018-06-17T16:14:29.842Z,3.83
2018-06-17T16:17:03.103Z,4.27
2018-06-17T16:19:36.274Z,5.17
2018-06-17T16:22:03.873Z,3.80
2018-06-17T16:24:31.454Z,3.40
2018-06-17T16:26:59.145Z,3.10
2018-06-17T16:29:26.720Z,3.10
2018-06-17T16:31:55.161Z,5.60
2018-06-17T16:34:22.641Z,2.97
2018-06-17T16:36:50.218Z,3.13
2018-06-17T16:39:17.739Z,3.33
2018-06-17T16:41:45.374Z,3.63
2018-06-17T16:44:13.258Z,4.53
2018-06-17T16:46:41.465Z,3.73
2018-06-17T16:49:09.416Z,4.80
2018-06-17T16:51:42.749Z,4.93
2018-06-17T16:54:17.083Z,5.30
2018-06-17T16:56:50.154Z,4.00
2018-06-17T16:59:23.634Z,5.23
2018-06-17T17:01:51.295Z,4.70
2018-06-17T17:04:18.872Z,3.77
2018-06-17T17:06:46.556Z,3.77
2018-06-17T17:09:14.145Z,2.50
2018-06-17T17:11:41.711Z,4.30
2018-06-17T17:14:11.305Z,4.77
2018-06-17T17:16:40.331Z,5.50
2018-06-17T17:19:07.849Z,4.20
2018-06-17T17:21:35.294Z,2.57
2018-06-17T17:24:02.905Z,3.43
2018-06-17T17:26:30.548Z,5.47
2018-06-17T17:28:58.097Z,3.87
2018-06-17T17:31:30.165Z,4.50
2018-06-17T17:34:03.366Z,4.60
2018-06-17T17:36:36.438Z,3.80
2018-06-17T17:39:11.875Z,2.90
2018-06-17T17:41:39.325Z,2.57
2018-06-17T17:44:07.356Z,3.53
2018-06-17T17:46:40.487Z,4.10
2018-06-17T17:49:08.080Z,2.57
2018-06-17T17:51:35.516Z,3.10
2018-06-17T17:54:03.200Z,6.90
2018-06-17T17:56:32.398Z,4.70
2018-06-17T17:59:00.341Z,2.97
2018-06-17T18:01:27.755Z,4.17
2018-06-17T18:03:55.697Z,3.80
2018-06-17T18:07:48.350Z,3.50
2018-06-17T18:10:17.076Z,3.10
2018-06-17T18:12:44.690Z,3.63
2018-06-17T18:15:12.256Z,3.83
2018-06-17T18:17:39.889Z,3.33
2018-06-17T18:20:07.329Z,3.47
2018-06-17T18:22:34.921Z,3.90
2018-06-17T18:25:08.154Z,3.50
2018-06-17T18:27:41.470Z,4.10
2018-06-17T18:30:14.658Z,5.57
2018-06-17T18:32:47.890Z,7.20
2018-06-17T18:35:21.141Z,6.43
2018-06-17T18:37:48.577Z,7.10
2018-06-17T18:40:16.256Z,7.77
2018-06-17T18:42:43.824Z,11.20
2018-06-17T18:45:11.470Z,6.77
2018-06-17T18:47:39.210Z,5.17
2018-06-17T18:50:08.420Z,5.80
2018-06-17T18:52:36.029Z,5.50
2018-06-17T18:55:03.646Z,4.37
2018-06-17T18:57:31.553Z,4.20
2018-06-17T18:59:59.151Z,4.70
2018-06-17T19:02:26.871Z,4.00
2018-06-17T19:04:54.452Z,3.63
2018-06-17T19:07:22.008Z,4.73
2018-06-17T19:09:55.072Z,5.23
2018-06-17T19:13:30.946Z,5.87
2018-06-17T19:16:04.581Z,4.20
2018-06-17T19:18:32.556Z,3.97
2018-06-17T19:21:00.742Z,4.00
2018-06-17T19:23:28.593Z,3.57
2018-06-17T19:25:56.283Z,3.70
2018-06-17T19:28:23.752Z,4.03
2018-06-17T19:30:51.290Z,5.70
2018-06-17T19:33:19.444Z,3.80
2018-06-17T19:35:47.933Z,5.23
2018-06-17T19:38:15.516Z,4.43
2018-06-17T19:40:43.424Z,4.33
2018-06-17T19:43:11.194Z,5.07
2018-06-17T19:45:38.894Z,8.07
2018-06-17T19:48:08.500Z,7.00
2018-06-17T19:50:42.022Z,4.20
2018-06-17T19:53:15.093Z,8.17
2018-06-17T19:55:48.569Z,4.30
2018-06-17T19:58:21.982Z,5.27
2018-06-17T20:00:52.811Z,5.30
2018-06-17T20:03:20.202Z,4.00
2018-06-17T20:05:48.440Z,5.40
2018-06-17T20:08:16.242Z,7.83
2018-06-17T20:10:43.743Z,4.23
2018-06-17T20:13:11.215Z,3.80
2018-06-17T20:15:38.770Z,5.07
2018-06-17T20:18:06.671Z,6.27
2018-06-17T20:20:34.921Z,4.60
2018-06-17T20:23:02.374Z,4.03
2018-06-17T20:25:29.875Z,4.23
2018-06-17T20:27:57.347Z,5.13
2018-06-17T20:30:24.945Z,4.20
2018-06-17T20:32:58.141Z,5.13
2018-06-17T20:35:31.377Z,4.60
2018-06-17T20:38:04.553Z,4.17
2018-06-17T20:40:37.689Z,4.53
2018-06-17T20:43:10.962Z,4.40
2018-06-17T20:45:38.453Z,7.63
2018-06-17T20:57:51.072Z,4.30
2018-06-17T21:00:19.706Z,4.70
2018-06-17T21:02:51.981Z,9.07
2018-06-17T21:05:19.436Z,5.83
2018-06-17T21:07:46.866Z,5.50
2018-06-17T21:10:15.418Z,6.00
2018-06-17T21:12:43.111Z,6.07
2018-06-17T21:15:17.201Z,5.57
2018-06-17T21:17:45.999Z,6.17
2018-06-17T21:20:19.567Z,7.80
2018-06-17T21:22:52.796Z,5.00
2018-06-17T21:25:26.004Z,5.10
2018-06-17T21:27:55.956Z,4.50
2018-06-17T21:30:23.509Z,4.17
2018-06-17T21:32:51.021Z,4.30
2018-06-17T21:35:18.501Z,4.03
2018-06-17T21:37:46.065Z,4.13
2018-06-17T21:40:13.631Z,4.97
2018-06-17T21:42:41.876Z,4.17
2018-06-17T21:45:09.820Z,4.63
2018-06-17T21:47:37.254Z,6.20
2018-06-17T21:50:04.893Z,6.20
2018-06-17T21:52:32.401Z,6.80
2018-06-17T21:54:59.976Z,5.43
2018-06-17T21:57:27.545Z,3.97
2018-06-17T21:59:55.020Z,5.03
2018-06-17T22:02:22.564Z,4.00
2018-06-17T22:04:50.223Z,3.90
2018-06-17T22:07:17.763Z,4.60
2018-06-17T22:09:50.875Z,4.93
2018-06-17T22:12:24.052Z,6.63
2018-06-17T22:14:57.023Z,5.20
2018-06-17T22:17:30.242Z,6.07
2018-06-17T22:19:57.785Z,4.90
2018-06-17T22:22:25.243Z,3.63
2018-06-17T22:24:52.744Z,3.63
2018-06-17T22:27:20.322Z,3.73
2018-06-17T22:29:47.875Z,4.40
2018-06-17T22:32:15.551Z,4.17
2018-06-17T22:34:43.096Z,4.00
2018-06-17T22:37:10.648Z,3.70
2018-06-17T22:39:38.663Z,4.00
2018-06-17T22:42:06.513Z,3.90
2018-06-17T22:44:34.441Z,4.30
2018-06-17T22:47:02.015Z,3.30
2018-06-17T22:49:29.573Z,3.70
2018-06-17T22:51:57.175Z,3.70
2018-06-17T22:54:30.564Z,3.90
2018-06-17T22:58:05.284Z,3.70
2018-06-17T23:00:38.418Z,4.47
2018-06-17T23:03:12.386Z,4.80
2018-06-17T23:05:45.525Z,6.47
2018-06-17T23:08:18.664Z,4.70
2018-06-17T23:10:46.195Z,5.07
2018-06-17T23:13:13.752Z,4.10
2018-06-17T23:15:41.225Z,5.40
2018-06-17T23:18:08.700Z,3.97
2018-06-17T23:20:39.468Z,3.70
2018-06-17T23:23:06.970Z,3.87
2018-06-17T23:25:36.288Z,4.20
2018-06-17T23:28:04.440Z,4.70
2018-06-17T23:30:32.074Z,5.33
2018-06-17T23:32:59.561Z,3.50
2018-06-17T23:35:27.141Z,6.33
2018-06-17T23:37:54.671Z,5.07
2018-06-17T23:40:22.200Z,4.83
2018-06-17T23:42:49.713Z,5.20
2018-06-17T23:45:17.196Z,4.33
2018-06-17T23:47:50.329Z,4.30
2018-06-17T23:50:23.541Z,4.63
2018-06-17T23:52:56.587Z,3.47
2018-06-17T23:55:29.682Z,3.33
2018-06-17T23:57:57.175Z,4.60
